sensor_id;sensor_type;location;lat;lon;timestamp;P1;durP1;ratioP1;P2;durP2;ratioP2
31728;SDS011;18309;43.658;1.312;2024-03-22T00:01:45;24.92;;;5.72;;
31728;SDS011;18309;43.658;1.312;2024-03-22T00:04:12;23.77;;;6.40;;
31728;SDS011;18309;43.658;1.312;2024-03-22T00:06:38;25.10;;;6.38;;
31728;SDS011;18309;43.658;1.312;2024-03-22T00:09:05;31.38;;;6.28;;
31728;SDS011;18309;43.658;1.312;2024-03-22T00:11:31;19.67;;;5.88;;
31728;SDS011;18309;43.658;1.312;2024-03-22T00:13:57;19.85;;;5.82;;
31728;SDS011;18309;43.658;1.312;2024-03-22T00:16:23;22.55;;;6.60;;
31728;SDS011;18309;43.658;1.312;2024-03-22T00:18:49;26.60;;;6.28;;
31728;SDS011;18309;43.658;1.312;2024-03-22T00:21:14;23.10;;;5.65;;
31728;SDS011;18309;43.658;1.312;2024-03-22T00:23:40;22.05;;;5.93;;
31728;SDS011;18309;43.658;1.312;2024-03-22T00:26:06;18.00;;;5.35;;
31728;SDS011;18309;43.658;1.312;2024-03-22T00:28:32;33.53;;;7.25;;
31728;SDS011;18309;43.658;1.312;2024-03-22T00:30:58;29.80;;;6.88;;
31728;SDS011;18309;43.658;1.312;2024-03-22T00:33:24;25.70;;;6.43;;
31728;SDS011;18309;43.658;1.312;2024-03-22T00:35:49;19.10;;;5.72;;
31728;SDS011;18309;43.658;1.312;2024-03-22T00:38:15;25.00;;;6.32;;
31728;SDS011;18309;43.658;1.312;2024-03-22T00:40:41;23.00;;;6.47;;
31728;SDS011;18309;43.658;1.312;2024-03-22T00:43:07;19.60;;;5.70;;
31728;SDS011;18309;43.658;1.312;2024-03-22T00:45:32;20.55;;;6.45;;
31728;SDS011;18309;43.658;1.312;2024-03-22T00:47:58;23.65;;;6.10;;
31728;SDS011;18309;43.658;1.312;2024-03-22T00:50:24;21.20;;;5.95;;
31728;SDS011;18309;43.658;1.312;2024-03-22T00:52:50;27.88;;;6.95;;
31728;SDS011;18309;43.658;1.312;2024-03-22T00:55:17;21.33;;;6.00;;
31728;SDS011;18309;43.658;1.312;2024-03-22T00:57:43;19.35;;;5.90;;
31728;SDS011;18309;43.658;1.312;2024-03-22T01:00:09;21.73;;;5.82;;
31728;SDS011;18309;43.658;1.312;2024-03-22T01:02:35;23.63;;;6.53;;
31728;SDS011;18309;43.658;1.312;2024-03-22T01:05:00;27.52;;;6.57;;
31728;SDS011;18309;43.658;1.312;2024-03-22T01:07:26;31.98;;;6.80;;
31728;SDS011;18309;43.658;1.312;2024-03-22T01:09:52;21.02;;;5.82;;
31728;SDS011;18309;43.658;1.312;2024-03-22T01:12:17;24.35;;;6.10;;
31728;SDS011;18309;43.658;1.312;2024-03-22T01:14:43;18.60;;;5.65;;
31728;SDS011;18309;43.658;1.312;2024-03-22T01:17:09;30.65;;;6.07;;
31728;SDS011;18309;43.658;1.312;2024-03-22T01:19:34;32.53;;;7.00;;
31728;SDS011;18309;43.658;1.312;2024-03-22T01:22:00;28.60;;;6.65;;
31728;SDS011;18309;43.658;1.312;2024-03-22T01:24:26;32.75;;;6.85;;
31728;SDS011;18309;43.658;1.312;2024-03-22T01:26:51;35.88;;;7.10;;
31728;SDS011;18309;43.658;1.312;2024-03-22T01:29:17;26.17;;;6.63;;
31728;SDS011;18309;43.658;1.312;2024-03-22T01:31:43;27.17;;;7.90;;
31728;SDS011;18309;43.658;1.312;2024-03-22T01:34:08;36.63;;;7.20;;
31728;SDS011;18309;43.658;1.312;2024-03-22T01:36:34;23.10;;;6.38;;
31728;SDS011;18309;43.658;1.312;2024-03-22T01:38:59;18.50;;;6.20;;
31728;SDS011;18309;43.658;1.312;2024-03-22T01:41:25;31.15;;;7.68;;
31728;SDS011;18309;43.658;1.312;2024-03-22T01:43:52;24.45;;;6.13;;
31728;SDS011;18309;43.658;1.312;2024-03-22T01:46:17;26.08;;;6.15;;
31728;SDS011;18309;43.658;1.312;2024-03-22T01:48:43;25.50;;;5.88;;
31728;SDS011;18309;43.658;1.312;2024-03-22T01:51:09;34.20;;;7.82;;
31728;SDS011;18309;43.658;1.312;2024-03-22T01:53:35;15.70;;;6.70;;
31728;SDS011;18309;43.658;1.312;2024-03-22T01:56:02;30.00;;;8.05;;
31728;SDS011;18309;43.658;1.312;2024-03-22T01:58:28;29.33;;;8.18;;
31728;SDS011;18309;43.658;1.312;2024-03-22T02:00:54;21.02;;;6.53;;
31728;SDS011;18309;43.658;1.312;2024-03-22T02:03:20;40.30;;;7.22;;
31728;SDS011;18309;43.658;1.312;2024-03-22T02:05:45;27.50;;;7.60;;
31728;SDS011;18309;43.658;1.312;2024-03-22T02:08:11;30.10;;;8.70;;
31728;SDS011;18309;43.658;1.312;2024-03-22T02:10:36;27.85;;;8.82;;
31728;SDS011;18309;43.658;1.312;2024-03-22T02:13:02;34.88;;;8.02;;
31728;SDS011;18309;43.658;1.312;2024-03-22T02:15:28;27.25;;;8.32;;
31728;SDS011;18309;43.658;1.312;2024-03-22T02:17:54;27.48;;;8.48;;
31728;SDS011;18309;43.658;1.312;2024-03-22T02:20:19;24.27;;;7.88;;
31728;SDS011;18309;43.658;1.312;2024-03-22T02:22:45;24.88;;;7.82;;
31728;SDS011;18309;43.658;1.312;2024-03-22T02:25:10;29.40;;;8.60;;
31728;SDS011;18309;43.658;1.312;2024-03-22T02:27:37;21.55;;;7.78;;
31728;SDS011;18309;43.658;1.312;2024-03-22T02:30:04;27.23;;;7.95;;
31728;SDS011;18309;43.658;1.312;2024-03-22T02:32:30;24.95;;;7.63;;
31728;SDS011;18309;43.658;1.312;2024-03-22T02:34:56;29.23;;;7.82;;
31728;SDS011;18309;43.658;1.312;2024-03-22T02:37:21;26.77;;;7.45;;
31728;SDS011;18309;43.658;1.312;2024-03-22T02:39:47;27.63;;;9.18;;
31728;SDS011;18309;43.658;1.312;2024-03-22T02:42:13;27.83;;;7.40;;
31728;SDS011;18309;43.658;1.312;2024-03-22T02:44:38;24.08;;;7.85;;
31728;SDS011;18309;43.658;1.312;2024-03-22T02:47:08;31.40;;;7.88;;
31728;SDS011;18309;43.658;1.312;2024-03-22T02:49:34;22.60;;;7.63;;
31728;SDS011;18309;43.658;1.312;2024-03-22T02:52:00;30.08;;;7.35;;
31728;SDS011;18309;43.658;1.312;2024-03-22T02:54:26;25.80;;;6.70;;
31728;SDS011;18309;43.658;1.312;2024-03-22T02:56:51;23.75;;;7.80;;
31728;SDS011;18309;43.658;1.312;2024-03-22T02:59:17;20.67;;;6.97;;
31728;SDS011;18309;43.658;1.312;2024-03-22T03:01:43;34.33;;;7.30;;
31728;SDS011;18309;43.658;1.312;2024-03-22T03:04:09;22.77;;;6.50;;
31728;SDS011;18309;43.658;1.312;2024-03-22T03:06:34;31.35;;;8.07;;
31728;SDS011;18309;43.658;1.312;2024-03-22T03:09:00;20.85;;;6.88;;
31728;SDS011;18309;43.658;1.312;2024-03-22T03:11:25;27.70;;;8.02;;
31728;SDS011;18309;43.658;1.312;2024-03-22T03:13:52;26.98;;;7.25;;
31728;SDS011;18309;43.658;1.312;2024-03-22T03:16:17;19.63;;;6.70;;
31728;SDS011;18309;43.658;1.312;2024-03-22T03:18:43;27.35;;;7.53;;
31728;SDS011;18309;43.658;1.312;2024-03-22T03:21:09;31.40;;;7.43;;
31728;SDS011;18309;43.658;1.312;2024-03-22T03:23:34;29.13;;;7.55;;
31728;SDS011;18309;43.658;1.312;2024-03-22T03:26:00;19.50;;;6.90;;
31728;SDS011;18309;43.658;1.312;2024-03-22T03:28:26;32.95;;;7.10;;
31728;SDS011;18309;43.658;1.312;2024-03-22T03:30:52;26.33;;;6.65;;
31728;SDS011;18309;43.658;1.312;2024-03-22T03:33:18;26.77;;;6.00;;
31728;SDS011;18309;43.658;1.312;2024-03-22T03:35:46;22.65;;;7.18;;
31728;SDS011;18309;43.658;1.312;2024-03-22T03:38:12;23.15;;;7.35;;
31728;SDS011;18309;43.658;1.312;2024-03-22T03:40:38;37.95;;;6.38;;
31728;SDS011;18309;43.658;1.312;2024-03-22T03:43:04;30.30;;;5.97;;
31728;SDS011;18309;43.658;1.312;2024-03-22T03:45:29;14.50;;;5.97;;
31728;SDS011;18309;43.658;1.312;2024-03-22T03:47:55;17.15;;;5.50;;
31728;SDS011;18309;43.658;1.312;2024-03-22T03:50:21;16.98;;;5.63;;
31728;SDS011;18309;43.658;1.312;2024-03-22T03:52:47;30.90;;;6.00;;
31728;SDS011;18309;43.658;1.312;2024-03-22T03:55:12;27.80;;;6.18;;
31728;SDS011;18309;43.658;1.312;2024-03-22T03:57:38;37.63;;;6.68;;
31728;SDS011;18309;43.658;1.312;2024-03-22T04:00:04;21.17;;;7.05;;
31728;SDS011;18309;43.658;1.312;2024-03-22T04:02:30;19.08;;;5.57;;
31728;SDS011;18309;43.658;1.312;2024-03-22T04:04:56;27.15;;;6.45;;
31728;SDS011;18309;43.658;1.312;2024-03-22T04:07:21;24.17;;;7.25;;
31728;SDS011;18309;43.658;1.312;2024-03-22T04:09:47;24.58;;;6.20;;
31728;SDS011;18309;43.658;1.312;2024-03-22T04:12:13;25.77;;;6.57;;
31728;SDS011;18309;43.658;1.312;2024-03-22T04:14:38;23.20;;;6.53;;
31728;SDS011;18309;43.658;1.312;2024-03-22T04:17:04;24.88;;;7.32;;
31728;SDS011;18309;43.658;1.312;2024-03-22T04:19:30;19.38;;;7.60;;
31728;SDS011;18309;43.658;1.312;2024-03-22T04:21:55;22.15;;;7.13;;
31728;SDS011;18309;43.658;1.312;2024-03-22T04:24:21;28.30;;;7.25;;
31728;SDS011;18309;43.658;1.312;2024-03-22T04:26:47;28.52;;;7.43;;
31728;SDS011;18309;43.658;1.312;2024-03-22T04:29:12;21.00;;;7.50;;
31728;SDS011;18309;43.658;1.312;2024-03-22T04:31:38;27.98;;;7.82;;
31728;SDS011;18309;43.658;1.312;2024-03-22T04:34:04;28.63;;;8.25;;
31728;SDS011;18309;43.658;1.312;2024-03-22T04:36:32;21.48;;;7.22;;
31728;SDS011;18309;43.658;1.312;2024-03-22T04:38:58;18.40;;;6.75;;
31728;SDS011;18309;43.658;1.312;2024-03-22T04:41:24;24.42;;;7.75;;
31728;SDS011;18309;43.658;1.312;2024-03-22T04:43:49;21.85;;;8.05;;
31728;SDS011;18309;43.658;1.312;2024-03-22T04:46:15;22.45;;;7.13;;
31728;SDS011;18309;43.658;1.312;2024-03-22T04:48:41;25.52;;;8.48;;
31728;SDS011;18309;43.658;1.312;2024-03-22T04:51:06;25.77;;;9.65;;
31728;SDS011;18309;43.658;1.312;2024-03-22T04:53:32;36.30;;;10.48;;
31728;SDS011;18309;43.658;1.312;2024-03-22T04:55:58;33.30;;;10.48;;
31728;SDS011;18309;43.658;1.312;2024-03-22T04:58:23;27.15;;;11.10;;
31728;SDS011;18309;43.658;1.312;2024-03-22T05:00:49;31.42;;;10.65;;
31728;SDS011;18309;43.658;1.312;2024-03-22T05:03:20;32.60;;;12.23;;
31728;SDS011;18309;43.658;1.312;2024-03-22T05:05:46;32.38;;;9.52;;
31728;SDS011;18309;43.658;1.312;2024-03-22T05:08:12;24.33;;;8.70;;
31728;SDS011;18309;43.658;1.312;2024-03-22T05:10:37;24.42;;;9.68;;
31728;SDS011;18309;43.658;1.312;2024-03-22T05:13:03;20.75;;;7.75;;
31728;SDS011;18309;43.658;1.312;2024-03-22T05:15:30;27.40;;;8.82;;
31728;SDS011;18309;43.658;1.312;2024-03-22T05:17:56;20.27;;;7.28;;
31728;SDS011;18309;43.658;1.312;2024-03-22T05:20:23;24.90;;;8.30;;
31728;SDS011;18309;43.658;1.312;2024-03-22T05:22:49;23.42;;;8.27;;
31728;SDS011;18309;43.658;1.312;2024-03-22T05:25:14;23.25;;;8.02;;
31728;SDS011;18309;43.658;1.312;2024-03-22T05:27:40;36.95;;;9.30;;
31728;SDS011;18309;43.658;1.312;2024-03-22T05:32:38;26.10;;;8.30;;
31728;SDS011;18309;43.658;1.312;2024-03-22T05:35:05;26.50;;;8.52;;
31728;SDS011;18309;43.658;1.312;2024-03-22T05:37:31;30.08;;;8.95;;
31728;SDS011;18309;43.658;1.312;2024-03-22T05:39:58;24.55;;;9.00;;
31728;SDS011;18309;43.658;1.312;2024-03-22T05:42:25;24.98;;;8.63;;
31728;SDS011;18309;43.658;1.312;2024-03-22T05:44:51;26.08;;;7.95;;
31728;SDS011;18309;43.658;1.312;2024-03-22T05:47:17;22.42;;;8.25;;
31728;SDS011;18309;43.658;1.312;2024-03-22T05:49:44;20.90;;;7.70;;
31728;SDS011;18309;43.658;1.312;2024-03-22T05:52:10;24.17;;;8.73;;
31728;SDS011;18309;43.658;1.312;2024-03-22T05:54:37;24.52;;;8.45;;
31728;SDS011;18309;43.658;1.312;2024-03-22T05:57:02;27.75;;;9.10;;
31728;SDS011;18309;43.658;1.312;2024-03-22T05:59:30;25.98;;;8.93;;
31728;SDS011;18309;43.658;1.312;2024-03-22T06:01:56;22.27;;;8.45;;
31728;SDS011;18309;43.658;1.312;2024-03-22T06:04:21;23.13;;;8.52;;
31728;SDS011;18309;43.658;1.312;2024-03-22T06:06:48;22.15;;;8.73;;
31728;SDS011;18309;43.658;1.312;2024-03-22T06:09:14;23.20;;;8.68;;
31728;SDS011;18309;43.658;1.312;2024-03-22T06:11:48;29.48;;;9.45;;
31728;SDS011;18309;43.658;1.312;2024-03-22T06:14:15;23.77;;;8.88;;
31728;SDS011;18309;43.658;1.312;2024-03-22T06:16:40;24.35;;;8.63;;
31728;SDS011;18309;43.658;1.312;2024-03-22T06:19:06;21.35;;;8.23;;
31728;SDS011;18309;43.658;1.312;2024-03-22T06:21:32;25.50;;;8.43;;
31728;SDS011;18309;43.658;1.312;2024-03-22T06:23:57;33.15;;;9.35;;
31728;SDS011;18309;43.658;1.312;2024-03-22T06:26:23;25.98;;;8.77;;
31728;SDS011;18309;43.658;1.312;2024-03-22T06:28:48;20.00;;;8.20;;
31728;SDS011;18309;43.658;1.312;2024-03-22T06:31:14;26.60;;;8.68;;
31728;SDS011;18309;43.658;1.312;2024-03-22T06:33:40;21.30;;;8.82;;
31728;SDS011;18309;43.658;1.312;2024-03-22T06:36:06;22.70;;;8.70;;
31728;SDS011;18309;43.658;1.312;2024-03-22T06:38:32;20.75;;;7.95;;
31728;SDS011;18309;43.658;1.312;2024-03-22T06:40:57;17.52;;;7.82;;
31728;SDS011;18309;43.658;1.312;2024-03-22T06:43:24;33.15;;;9.25;;
31728;SDS011;18309;43.658;1.312;2024-03-22T06:45:50;21.88;;;8.27;;
31728;SDS011;18309;43.658;1.312;2024-03-22T06:48:16;24.80;;;8.73;;
31728;SDS011;18309;43.658;1.312;2024-03-22T06:50:41;31.75;;;8.20;;
31728;SDS011;18309;43.658;1.312;2024-03-22T06:53:07;30.88;;;9.32;;
31728;SDS011;18309;43.658;1.312;2024-03-22T06:55:35;25.10;;;10.38;;
31728;SDS011;18309;43.658;1.312;2024-03-22T06:58:00;24.13;;;9.10;;
31728;SDS011;18309;43.658;1.312;2024-03-22T07:00:26;33.55;;;8.35;;
31728;SDS011;18309;43.658;1.312;2024-03-22T07:02:52;17.48;;;6.82;;
31728;SDS011;18309;43.658;1.312;2024-03-22T07:05:17;22.73;;;7.32;;
31728;SDS011;18309;43.658;1.312;2024-03-22T07:07:43;23.40;;;7.95;;
31728;SDS011;18309;43.658;1.312;2024-03-22T07:10:09;21.23;;;7.95;;
31728;SDS011;18309;43.658;1.312;2024-03-22T07:12:35;23.38;;;7.70;;
31728;SDS011;18309;43.658;1.312;2024-03-22T07:15:01;25.73;;;8.35;;
31728;SDS011;18309;43.658;1.312;2024-03-22T07:17:27;25.33;;;9.90;;
31728;SDS011;18309;43.658;1.312;2024-03-22T07:19:53;29.85;;;9.63;;
31728;SDS011;18309;43.658;1.312;2024-03-22T07:22:20;29.45;;;9.02;;
31728;SDS011;18309;43.658;1.312;2024-03-22T07:24:46;20.60;;;9.70;;
31728;SDS011;18309;43.658;1.312;2024-03-22T07:27:16;30.48;;;10.02;;
31728;SDS011;18309;43.658;1.312;2024-03-22T07:29:42;35.92;;;10.35;;
31728;SDS011;18309;43.658;1.312;2024-03-22T07:32:09;40.05;;;10.88;;
31728;SDS011;18309;43.658;1.312;2024-03-22T07:34:34;34.50;;;10.93;;
31728;SDS011;18309;43.658;1.312;2024-03-22T07:37:00;35.35;;;11.10;;
31728;SDS011;18309;43.658;1.312;2024-03-22T07:39:26;29.63;;;11.00;;
31728;SDS011;18309;43.658;1.312;2024-03-22T07:41:51;30.45;;;12.13;;
31728;SDS011;18309;43.658;1.312;2024-03-22T07:44:17;32.10;;;13.02;;
31728;SDS011;18309;43.658;1.312;2024-03-22T07:46:44;29.90;;;12.43;;
31728;SDS011;18309;43.658;1.312;2024-03-22T07:49:11;38.53;;;12.23;;
31728;SDS011;18309;43.658;1.312;2024-03-22T07:51:37;32.30;;;11.60;;
31728;SDS011;18309;43.658;1.312;2024-03-22T07:54:03;26.48;;;12.40;;
31728;SDS011;18309;43.658;1.312;2024-03-22T07:56:28;25.88;;;11.55;;
31728;SDS011;18309;43.658;1.312;2024-03-22T07:58:55;31.92;;;12.10;;
31728;SDS011;18309;43.658;1.312;2024-03-22T08:01:22;44.22;;;12.65;;
31728;SDS011;18309;43.658;1.312;2024-03-22T08:03:48;32.92;;;11.52;;
31728;SDS011;18309;43.658;1.312;2024-03-22T08:06:14;40.80;;;12.32;;
31728;SDS011;18309;43.658;1.312;2024-03-22T08:08:40;43.28;;;13.05;;
31728;SDS011;18309;43.658;1.312;2024-03-22T08:11:06;32.08;;;11.75;;
31728;SDS011;18309;43.658;1.312;2024-03-22T08:13:31;31.67;;;11.65;;
31728;SDS011;18309;43.658;1.312;2024-03-22T08:15:59;31.88;;;12.50;;
31728;SDS011;18309;43.658;1.312;2024-03-22T08:18:25;29.90;;;11.48;;
31728;SDS011;18309;43.658;1.312;2024-03-22T08:20:51;47.35;;;12.27;;
31728;SDS011;18309;43.658;1.312;2024-03-22T08:23:17;31.88;;;11.55;;
31728;SDS011;18309;43.658;1.312;2024-03-22T08:25:45;35.33;;;12.98;;
31728;SDS011;18309;43.658;1.312;2024-03-22T08:28:11;36.28;;;11.80;;
31728;SDS011;18309;43.658;1.312;2024-03-22T08:30:38;31.98;;;12.77;;
31728;SDS011;18309;43.658;1.312;2024-03-22T08:33:04;31.85;;;12.38;;
31728;SDS011;18309;43.658;1.312;2024-03-22T08:35:30;39.45;;;12.88;;
31728;SDS011;18309;43.658;1.312;2024-03-22T08:37:56;36.83;;;12.93;;
31728;SDS011;18309;43.658;1.312;2024-03-22T08:40:22;30.17;;;11.63;;
31728;SDS011;18309;43.658;1.312;2024-03-22T08:42:48;38.80;;;13.80;;
31728;SDS011;18309;43.658;1.312;2024-03-22T08:45:13;38.75;;;12.30;;
31728;SDS011;18309;43.658;1.312;2024-03-22T08:47:41;37.80;;;12.52;;
31728;SDS011;18309;43.658;1.312;2024-03-22T08:50:07;30.50;;;12.55;;
31728;SDS011;18309;43.658;1.312;2024-03-22T08:52:34;44.95;;;12.60;;
31728;SDS011;18309;43.658;1.312;2024-03-22T08:55:00;43.13;;;12.75;;
31728;SDS011;18309;43.658;1.312;2024-03-22T08:57:26;38.75;;;11.93;;
31728;SDS011;18309;43.658;1.312;2024-03-22T08:59:52;39.72;;;11.77;;
31728;SDS011;18309;43.658;1.312;2024-03-22T09:02:18;35.38;;;11.35;;
31728;SDS011;18309;43.658;1.312;2024-03-22T09:04:43;29.60;;;10.88;;
31728;SDS011;18309;43.658;1.312;2024-03-22T09:07:09;27.75;;;10.98;;
31728;SDS011;18309;43.658;1.312;2024-03-22T09:09:35;29.40;;;11.00;;
31728;SDS011;18309;43.658;1.312;2024-03-22T09:12:00;38.85;;;12.13;;
31728;SDS011;18309;43.658;1.312;2024-03-22T09:14:26;37.70;;;12.57;;
31728;SDS011;18309;43.658;1.312;2024-03-22T09:16:52;31.75;;;13.30;;
31728;SDS011;18309;43.658;1.312;2024-03-22T09:19:17;35.05;;;13.40;;
31728;SDS011;18309;43.658;1.312;2024-03-22T09:21:43;28.63;;;12.68;;
31728;SDS011;18309;43.658;1.312;2024-03-22T09:24:08;37.67;;;12.55;;
31728;SDS011;18309;43.658;1.312;2024-03-22T09:26:34;32.17;;;12.82;;
31728;SDS011;18309;43.658;1.312;2024-03-22T09:29:00;35.63;;;12.40;;
31728;SDS011;18309;43.658;1.312;2024-03-22T09:31:26;33.30;;;12.60;;
31728;SDS011;18309;43.658;1.312;2024-03-22T09:33:52;32.80;;;13.40;;
31728;SDS011;18309;43.658;1.312;2024-03-22T09:36:17;39.63;;;12.85;;
31728;SDS011;18309;43.658;1.312;2024-03-22T09:38:43;35.20;;;12.45;;
31728;SDS011;18309;43.658;1.312;2024-03-22T09:41:09;38.45;;;13.20;;
31728;SDS011;18309;43.658;1.312;2024-03-22T09:43:35;32.60;;;13.27;;
31728;SDS011;18309;43.658;1.312;2024-03-22T09:46:03;38.53;;;12.07;;
31728;SDS011;18309;43.658;1.312;2024-03-22T09:48:30;50.17;;;14.50;;
31728;SDS011;18309;43.658;1.312;2024-03-22T09:50:58;39.00;;;12.25;;
31728;SDS011;18309;43.658;1.312;2024-03-22T09:53:25;29.42;;;10.90;;
31728;SDS011;18309;43.658;1.312;2024-03-22T09:55:53;43.40;;;11.27;;
31728;SDS011;18309;43.658;1.312;2024-03-22T09:58:23;38.22;;;11.23;;
31728;SDS011;18309;43.658;1.312;2024-03-22T10:00:48;35.92;;;11.00;;
31728;SDS011;18309;43.658;1.312;2024-03-22T10:03:14;42.60;;;10.85;;
31728;SDS011;18309;43.658;1.312;2024-03-22T10:05:40;31.33;;;10.73;;
31728;SDS011;18309;43.658;1.312;2024-03-22T10:08:06;31.95;;;12.18;;
31728;SDS011;18309;43.658;1.312;2024-03-22T10:10:32;34.50;;;11.45;;
31728;SDS011;18309;43.658;1.312;2024-03-22T10:13:02;33.53;;;10.93;;
31728;SDS011;18309;43.658;1.312;2024-03-22T10:15:31;33.72;;;11.35;;
31728;SDS011;18309;43.658;1.312;2024-03-22T10:17:57;44.40;;;11.95;;
31728;SDS011;18309;43.658;1.312;2024-03-22T10:20:23;34.20;;;11.65;;
31728;SDS011;18309;43.658;1.312;2024-03-22T10:22:54;47.42;;;13.40;;
31728;SDS011;18309;43.658;1.312;2024-03-22T10:25:22;31.10;;;10.52;;
31728;SDS011;18309;43.658;1.312;2024-03-22T10:27:48;39.00;;;11.88;;
31728;SDS011;18309;43.658;1.312;2024-03-22T10:30:15;33.25;;;11.55;;
31728;SDS011;18309;43.658;1.312;2024-03-22T10:32:42;34.05;;;11.60;;
31728;SDS011;18309;43.658;1.312;2024-03-22T10:35:12;41.10;;;11.57;;
31728;SDS011;18309;43.658;1.312;2024-03-22T10:37:39;33.87;;;11.93;;
31728;SDS011;18309;43.658;1.312;2024-03-22T10:40:05;40.63;;;12.48;;
31728;SDS011;18309;43.658;1.312;2024-03-22T10:42:38;41.03;;;11.80;;
31728;SDS011;18309;43.658;1.312;2024-03-22T10:47:33;38.70;;;11.10;;
31728;SDS011;18309;43.658;1.312;2024-03-22T10:50:06;43.97;;;13.32;;
31728;SDS011;18309;43.658;1.312;2024-03-22T10:55:13;29.83;;;10.82;;
31728;SDS011;18309;43.658;1.312;2024-03-22T10:57:45;38.20;;;11.15;;
31728;SDS011;18309;43.658;1.312;2024-03-22T11:00:12;42.05;;;10.77;;
31728;SDS011;18309;43.658;1.312;2024-03-22T11:02:42;29.40;;;10.05;;
31728;SDS011;18309;43.658;1.312;2024-03-22T11:05:16;34.50;;;11.20;;
31728;SDS011;18309;43.658;1.312;2024-03-22T11:07:43;41.63;;;11.25;;
31728;SDS011;18309;43.658;1.312;2024-03-22T11:10:11;31.02;;;10.07;;
31728;SDS011;18309;43.658;1.312;2024-03-22T11:12:40;41.05;;;11.07;;
31728;SDS011;18309;43.658;1.312;2024-03-22T11:15:06;30.95;;;10.40;;
31728;SDS011;18309;43.658;1.312;2024-03-22T11:17:34;32.97;;;10.25;;
31728;SDS011;18309;43.658;1.312;2024-03-22T11:20:00;44.63;;;10.15;;
31728;SDS011;18309;43.658;1.312;2024-03-22T11:22:25;37.13;;;10.27;;
31728;SDS011;18309;43.658;1.312;2024-03-22T11:24:54;28.60;;;9.52;;
31728;SDS011;18309;43.658;1.312;2024-03-22T11:27:20;30.48;;;10.48;;
31728;SDS011;18309;43.658;1.312;2024-03-22T11:29:46;29.52;;;7.57;;
31728;SDS011;18309;43.658;1.312;2024-03-22T11:32:12;50.00;;;9.82;;
31728;SDS011;18309;43.658;1.312;2024-03-22T11:34:38;31.05;;;8.55;;
31728;SDS011;18309;43.658;1.312;2024-03-22T11:37:07;27.20;;;9.30;;
31728;SDS011;18309;43.658;1.312;2024-03-22T11:39:38;23.35;;;8.73;;
31728;SDS011;18309;43.658;1.312;2024-03-22T11:42:04;28.85;;;9.23;;
31728;SDS011;18309;43.658;1.312;2024-03-22T11:44:36;26.15;;;8.25;;
31728;SDS011;18309;43.658;1.312;2024-03-22T11:47:05;31.92;;;9.20;;
31728;SDS011;18309;43.658;1.312;2024-03-22T11:49:32;23.02;;;7.75;;
31728;SDS011;18309;43.658;1.312;2024-03-22T11:51:59;30.80;;;7.93;;
31728;SDS011;18309;43.658;1.312;2024-03-22T11:54:26;39.80;;;6.50;;
31728;SDS011;18309;43.658;1.312;2024-03-22T11:56:51;27.60;;;6.93;;
31728;SDS011;18309;43.658;1.312;2024-03-22T11:59:20;16.98;;;6.63;;
31728;SDS011;18309;43.658;1.312;2024-03-22T12:01:47;20.77;;;6.55;;
31728;SDS011;18309;43.658;1.312;2024-03-22T12:04:12;28.00;;;6.70;;
31728;SDS011;18309;43.658;1.312;2024-03-22T12:06:44;23.52;;;6.22;;
31728;SDS011;18309;43.658;1.312;2024-03-22T12:09:10;17.40;;;6.07;;
31728;SDS011;18309;43.658;1.312;2024-03-22T12:11:38;27.80;;;6.40;;
31728;SDS011;18309;43.658;1.312;2024-03-22T12:14:05;17.83;;;7.60;;
31728;SDS011;18309;43.658;1.312;2024-03-22T12:16:30;22.13;;;7.47;;
31728;SDS011;18309;43.658;1.312;2024-03-22T12:18:57;23.10;;;6.43;;
31728;SDS011;18309;43.658;1.312;2024-03-22T12:21:23;25.67;;;5.57;;
31728;SDS011;18309;43.658;1.312;2024-03-22T12:23:50;20.77;;;5.30;;
31728;SDS011;18309;43.658;1.312;2024-03-22T12:26:16;21.52;;;5.63;;
31728;SDS011;18309;43.658;1.312;2024-03-22T12:28:42;16.10;;;5.93;;
31728;SDS011;18309;43.658;1.312;2024-03-22T12:31:08;19.77;;;5.88;;
31728;SDS011;18309;43.658;1.312;2024-03-22T12:33:35;17.55;;;6.00;;
31728;SDS011;18309;43.658;1.312;2024-03-22T12:36:01;22.27;;;5.85;;
31728;SDS011;18309;43.658;1.312;2024-03-22T12:38:27;21.52;;;6.60;;
31728;SDS011;18309;43.658;1.312;2024-03-22T12:40:52;18.88;;;5.78;;
31728;SDS011;18309;43.658;1.312;2024-03-22T12:43:18;29.95;;;5.32;;
31728;SDS011;18309;43.658;1.312;2024-03-22T12:45:44;24.85;;;4.70;;
31728;SDS011;18309;43.658;1.312;2024-03-22T12:48:10;16.27;;;6.03;;
31728;SDS011;18309;43.658;1.312;2024-03-22T12:50:35;15.90;;;5.32;;
31728;SDS011;18309;43.658;1.312;2024-03-22T12:53:01;30.33;;;5.28;;
31728;SDS011;18309;43.658;1.312;2024-03-22T12:55:27;19.20;;;4.35;;
31728;SDS011;18309;43.658;1.312;2024-03-22T12:57:53;16.10;;;4.03;;
31728;SDS011;18309;43.658;1.312;2024-03-22T13:00:19;23.20;;;4.10;;
31728;SDS011;18309;43.658;1.312;2024-03-22T13:02:45;18.95;;;5.22;;
31728;SDS011;18309;43.658;1.312;2024-03-22T13:05:12;19.05;;;4.68;;
31728;SDS011;18309;43.658;1.312;2024-03-22T13:07:38;11.43;;;4.05;;
31728;SDS011;18309;43.658;1.312;2024-03-22T13:10:04;22.75;;;5.03;;
31728;SDS011;18309;43.658;1.312;2024-03-22T13:12:30;14.07;;;4.35;;
31728;SDS011;18309;43.658;1.312;2024-03-22T13:14:58;12.93;;;4.05;;
31728;SDS011;18309;43.658;1.312;2024-03-22T13:17:24;19.38;;;4.72;;
31728;SDS011;18309;43.658;1.312;2024-03-22T13:19:50;21.25;;;4.80;;
31728;SDS011;18309;43.658;1.312;2024-03-22T13:22:16;14.70;;;3.85;;
31728;SDS011;18309;43.658;1.312;2024-03-22T13:24:44;14.80;;;3.72;;
31728;SDS011;18309;43.658;1.312;2024-03-22T13:27:10;17.63;;;3.35;;
31728;SDS011;18309;43.658;1.312;2024-03-22T13:29:37;17.73;;;4.75;;
31728;SDS011;18309;43.658;1.312;2024-03-22T13:32:03;17.98;;;4.00;;
31728;SDS011;18309;43.658;1.312;2024-03-22T13:34:32;16.38;;;3.78;;
31728;SDS011;18309;43.658;1.312;2024-03-22T13:37:01;17.90;;;5.28;;
31728;SDS011;18309;43.658;1.312;2024-03-22T13:39:27;19.75;;;4.80;;
31728;SDS011;18309;43.658;1.312;2024-03-22T13:41:54;20.00;;;4.70;;
31728;SDS011;18309;43.658;1.312;2024-03-22T13:44:23;19.60;;;4.30;;
31728;SDS011;18309;43.658;1.312;2024-03-22T13:46:52;17.40;;;3.58;;
31728;SDS011;18309;43.658;1.312;2024-03-22T13:49:18;15.13;;;4.30;;
31728;SDS011;18309;43.658;1.312;2024-03-22T13:51:46;14.50;;;4.47;;
31728;SDS011;18309;43.658;1.312;2024-03-22T13:54:12;21.90;;;3.95;;
31728;SDS011;18309;43.658;1.312;2024-03-22T13:56:38;17.88;;;4.10;;
31728;SDS011;18309;43.658;1.312;2024-03-22T13:59:04;19.15;;;4.50;;
31728;SDS011;18309;43.658;1.312;2024-03-22T14:01:33;17.27;;;3.80;;
31728;SDS011;18309;43.658;1.312;2024-03-22T14:04:03;15.82;;;3.67;;
31728;SDS011;18309;43.658;1.312;2024-03-22T14:06:32;13.60;;;3.88;;
31728;SDS011;18309;43.658;1.312;2024-03-22T14:08:58;16.30;;;3.70;;
31728;SDS011;18309;43.658;1.312;2024-03-22T14:11:28;21.35;;;4.30;;
31728;SDS011;18309;43.658;1.312;2024-03-22T14:13:55;15.73;;;4.05;;
31728;SDS011;18309;43.658;1.312;2024-03-22T14:16:23;17.08;;;3.75;;
31728;SDS011;18309;43.658;1.312;2024-03-22T14:18:49;13.68;;;3.90;;
31728;SDS011;18309;43.658;1.312;2024-03-22T14:21:15;16.17;;;3.42;;
31728;SDS011;18309;43.658;1.312;2024-03-22T14:23:48;15.30;;;3.78;;
31728;SDS011;18309;43.658;1.312;2024-03-22T14:26:15;23.20;;;3.28;;
31728;SDS011;18309;43.658;1.312;2024-03-22T14:28:41;30.17;;;4.70;;
31728;SDS011;18309;43.658;1.312;2024-03-22T14:31:07;22.50;;;3.70;;
31728;SDS011;18309;43.658;1.312;2024-03-22T14:33:37;31.42;;;3.78;;